sensor_id;sensor_type;location;lat;lon;timestamp;P1;durP1;ratioP1;P2;durP2;ratioP2
29700;SDS011;57917;51.380;-0.176;2022-08-11T00:00:08;7.38;;;2.28;;
29700;SDS011;57917;51.380;-0.176;2022-08-11T00:05:57;9.20;;;2.40;;
29700;SDS011;57917;51.380;-0.176;2022-08-11T00:11:48;4.60;;;2.88;;
29700;SDS011;57917;51.380;-0.176;2022-08-11T00:17:37;6.60;;;2.95;;
29700;SDS011;57917;51.380;-0.176;2022-08-11T00:23:25;7.45;;;2.83;;
29700;SDS011;57917;51.380;-0.176;2022-08-11T00:29:13;6.55;;;2.72;;
29700;SDS011;57917;51.380;-0.176;2022-08-11T00:35:02;7.25;;;3.03;;
29700;SDS011;57917;51.380;-0.176;2022-08-11T00:41:27;6.40;;;2.40;;
29700;SDS011;57917;51.380;-0.176;2022-08-11T00:59:25;9.05;;;2.78;;
29700;SDS011;57917;51.380;-0.176;2022-08-11T01:24:01;6.65;;;2.45;;
29700;SDS011;57917;51.380;-0.176;2022-08-11T01:30:02;12.48;;;2.67;;
29700;SDS011;57917;51.380;-0.176;2022-08-11T01:55:36;9.25;;;2.60;;
29700;SDS011;57917;51.380;-0.176;2022-08-11T02:01:40;5.82;;;2.65;;
29700;SDS011;57917;51.380;-0.176;2022-08-11T02:07:48;9.30;;;2.70;;
29700;SDS011;57917;51.380;-0.176;2022-08-11T02:13:51;6.25;;;2.90;;
29700;SDS011;57917;51.380;-0.176;2022-08-11T02:20:00;9.77;;;2.92;;
29700;SDS011;57917;51.380;-0.176;2022-08-11T02:26:19;13.32;;;3.05;;
29700;SDS011;57917;51.380;-0.176;2022-08-11T02:32:27;7.70;;;2.85;;
29700;SDS011;57917;51.380;-0.176;2022-08-11T02:38:50;7.85;;;3.35;;
29700;SDS011;57917;51.380;-0.176;2022-08-11T02:57:19;4.72;;;3.05;;
29700;SDS011;57917;51.380;-0.176;2022-08-11T03:03:35;13.65;;;3.30;;
29700;SDS011;57917;51.380;-0.176;2022-08-11T03:09:45;8.98;;;3.13;;
29700;SDS011;57917;51.380;-0.176;2022-08-11T03:15:42;10.00;;;3.38;;
29700;SDS011;57917;51.380;-0.176;2022-08-11T03:34:24;13.63;;;3.67;;
29700;SDS011;57917;51.380;-0.176;2022-08-11T05:07:45;6.45;;;3.95;;
29700;SDS011;57917;51.380;-0.176;2022-08-11T05:13:59;9.30;;;3.90;;
29700;SDS011;57917;51.380;-0.176;2022-08-11T05:20:26;10.23;;;4.13;;
29700;SDS011;57917;51.380;-0.176;2022-08-11T05:26:51;16.52;;;5.45;;
29700;SDS011;57917;51.380;-0.176;2022-08-11T05:33:24;10.10;;;4.43;;
29700;SDS011;57917;51.380;-0.176;2022-08-11T05:40:23;8.02;;;4.72;;
29700;SDS011;57917;51.380;-0.176;2022-08-11T05:46:13;9.25;;;4.22;;
29700;SDS011;57917;51.380;-0.176;2022-08-11T05:52:22;9.45;;;4.43;;
29700;SDS011;57917;51.380;-0.176;2022-08-11T05:58:51;9.63;;;4.85;;
29700;SDS011;57917;51.380;-0.176;2022-08-11T06:04:39;14.65;;;5.82;;
29700;SDS011;57917;51.380;-0.176;2022-08-11T06:10:31;12.77;;;5.30;;
29700;SDS011;57917;51.380;-0.176;2022-08-11T06:16:20;12.40;;;5.47;;
29700;SDS011;57917;51.380;-0.176;2022-08-11T06:22:09;19.10;;;6.97;;
29700;SDS011;57917;51.380;-0.176;2022-08-11T06:28:02;15.15;;;6.22;;
29700;SDS011;57917;51.380;-0.176;2022-08-11T06:46:28;21.17;;;8.35;;
29700;SDS011;57917;51.380;-0.176;2022-08-11T06:52:17;20.77;;;7.63;;
29700;SDS011;57917;51.380;-0.176;2022-08-11T06:58:35;20.13;;;7.07;;
29700;SDS011;57917;51.380;-0.176;2022-08-11T07:04:51;14.63;;;6.25;;
29700;SDS011;57917;51.380;-0.176;2022-08-11T07:16:51;28.27;;;7.38;;
29700;SDS011;57917;51.380;-0.176;2022-08-11T07:22:49;23.80;;;7.10;;
29700;SDS011;57917;51.380;-0.176;2022-08-11T07:29:01;21.30;;;7.72;;
29700;SDS011;57917;51.380;-0.176;2022-08-11T07:34:51;16.33;;;6.60;;
29700;SDS011;57917;51.380;-0.176;2022-08-11T07:40:47;26.60;;;7.68;;
29700;SDS011;57917;51.380;-0.176;2022-08-11T07:46:38;23.08;;;7.35;;
29700;SDS011;57917;51.380;-0.176;2022-08-11T07:52:49;22.07;;;8.60;;
29700;SDS011;57917;51.380;-0.176;2022-08-11T07:58:39;27.65;;;8.48;;
29700;SDS011;57917;51.380;-0.176;2022-08-11T08:04:53;15.32;;;5.93;;
29700;SDS011;57917;51.380;-0.176;2022-08-11T08:11:00;22.20;;;5.85;;
29700;SDS011;57917;51.380;-0.176;2022-08-11T08:17:16;17.08;;;5.65;;
29700;SDS011;57917;51.380;-0.176;2022-08-11T08:23:25;22.23;;;5.38;;
29700;SDS011;57917;51.380;-0.176;2022-08-11T08:29:19;11.77;;;5.40;;
29700;SDS011;57917;51.380;-0.176;2022-08-11T08:35:29;13.30;;;4.63;;
29700;SDS011;57917;51.380;-0.176;2022-08-11T08:41:22;17.37;;;5.03;;
29700;SDS011;57917;51.380;-0.176;2022-08-11T08:47:13;13.88;;;4.60;;
29700;SDS011;57917;51.380;-0.176;2022-08-11T08:53:24;10.95;;;4.47;;
29700;SDS011;57917;51.380;-0.176;2022-08-11T08:59:15;8.15;;;4.43;;
29700;SDS011;57917;51.380;-0.176;2022-08-11T09:05:03;9.35;;;4.60;;
29700;SDS011;57917;51.380;-0.176;2022-08-11T09:10:55;7.45;;;4.03;;
29700;SDS011;57917;51.380;-0.176;2022-08-11T09:17:05;8.18;;;3.92;;
29700;SDS011;57917;51.380;-0.176;2022-08-11T09:22:57;8.40;;;3.80;;
29700;SDS011;57917;51.380;-0.176;2022-08-11T09:29:27;11.57;;;4.72;;
29700;SDS011;57917;51.380;-0.176;2022-08-11T09:35:16;15.48;;;3.72;;
29700;SDS011;57917;51.380;-0.176;2022-08-11T09:41:06;8.40;;;3.30;;
29700;SDS011;57917;51.380;-0.176;2022-08-11T09:46:57;9.25;;;3.95;;
29700;SDS011;57917;51.380;-0.176;2022-08-11T09:52:47;10.98;;;4.00;;
29700;SDS011;57917;51.380;-0.176;2022-08-11T09:58:58;14.35;;;4.28;;
29700;SDS011;57917;51.380;-0.176;2022-08-11T10:04:46;4.97;;;3.40;;
29700;SDS011;57917;51.380;-0.176;2022-08-11T10:10:35;12.25;;;3.28;;
29700;SDS011;57917;51.380;-0.176;2022-08-11T10:16:25;5.55;;;2.58;;
29700;SDS011;57917;51.380;-0.176;2022-08-11T10:22:14;6.63;;;2.58;;
29700;SDS011;57917;51.380;-0.176;2022-08-11T10:28:22;8.30;;;3.05;;
29700;SDS011;57917;51.380;-0.176;2022-08-11T10:34:29;7.97;;;2.40;;
29700;SDS011;57917;51.380;-0.176;2022-08-11T10:40:17;8.65;;;2.13;;
29700;SDS011;57917;51.380;-0.176;2022-08-11T10:46:09;3.70;;;1.88;;
29700;SDS011;57917;51.380;-0.176;2022-08-11T10:52:16;4.53;;;2.08;;
29700;SDS011;57917;51.380;-0.176;2022-08-11T10:58:24;5.38;;;2.35;;
29700;SDS011;57917;51.380;-0.176;2022-08-11T11:04:49;10.68;;;1.77;;
29700;SDS011;57917;51.380;-0.176;2022-08-11T11:10:44;4.55;;;1.75;;
29700;SDS011;57917;51.380;-0.176;2022-08-11T11:16:34;4.50;;;1.67;;
29700;SDS011;57917;51.380;-0.176;2022-08-11T11:22:42;7.90;;;1.40;;
29700;SDS011;57917;51.380;-0.176;2022-08-11T11:34:44;5.68;;;1.10;;
29700;SDS011;57917;51.380;-0.176;2022-08-11T11:41:13;11.75;;;1.92;;
29700;SDS011;57917;51.380;-0.176;2022-08-11T11:47:12;5.93;;;1.42;;
29700;SDS011;57917;51.380;-0.176;2022-08-11T11:53:02;1.42;;;1.23;;
29700;SDS011;57917;51.380;-0.176;2022-08-11T11:58:51;1.98;;;1.10;;
29700;SDS011;57917;51.380;-0.176;2022-08-11T12:05:00;2.33;;;1.02;;
29700;SDS011;57917;51.380;-0.176;2022-08-11T12:10:56;1.70;;;1.00;;
29700;SDS011;57917;51.380;-0.176;2022-08-11T12:17:03;4.05;;;1.40;;
29700;SDS011;57917;51.380;-0.176;2022-08-11T12:22:50;1.90;;;0.93;;
29700;SDS011;57917;51.380;-0.176;2022-08-11T12:29:09;4.05;;;1.40;;
29700;SDS011;57917;51.380;-0.176;2022-08-11T12:35:00;3.08;;;1.73;;
29700;SDS011;57917;51.380;-0.176;2022-08-11T12:40:50;4.75;;;0.85;;
29700;SDS011;57917;51.380;-0.176;2022-08-11T12:47:02;3.92;;;1.10;;
29700;SDS011;57917;51.380;-0.176;2022-08-11T12:52:50;6.55;;;1.08;;
29700;SDS011;57917;51.380;-0.176;2022-08-11T12:58:40;3.85;;;1.27;;
29700;SDS011;57917;51.380;-0.176;2022-08-11T13:04:32;1.60;;;1.00;;
29700;SDS011;57917;51.380;-0.176;2022-08-11T13:10:38;1.38;;;0.93;;
29700;SDS011;57917;51.380;-0.176;2022-08-11T13:16:44;2.25;;;1.00;;
29700;SDS011;57917;51.380;-0.176;2022-08-11T13:22:55;2.92;;;1.02;;
29700;SDS011;57917;51.380;-0.176;2022-08-11T13:28:46;2.63;;;1.10;;
29700;SDS011;57917;51.380;-0.176;2022-08-11T13:34:33;2.53;;;0.95;;
29700;SDS011;57917;51.380;-0.176;2022-08-11T13:40:26;2.20;;;1.25;;
29700;SDS011;57917;51.380;-0.176;2022-08-11T13:46:34;1.45;;;1.10;;
29700;SDS011;57917;51.380;-0.176;2022-08-11T13:52:22;3.60;;;0.85;;
29700;SDS011;57917;51.380;-0.176;2022-08-11T13:58:09;2.38;;;1.05;;
29700;SDS011;57917;51.380;-0.176;2022-08-11T14:04:29;8.65;;;1.15;;
29700;SDS011;57917;51.380;-0.176;2022-08-11T14:10:21;3.33;;;1.38;;
29700;SDS011;57917;51.380;-0.176;2022-08-11T14:16:15;2.80;;;1.50;;
29700;SDS011;57917;51.380;-0.176;2022-08-11T14:22:10;3.15;;;2.05;;
29700;SDS011;57917;51.380;-0.176;2022-08-11T14:28:00;7.43;;;1.05;;
29700;SDS011;57917;51.380;-0.176;2022-08-11T14:34:11;2.40;;;1.13;;
29700;SDS011;57917;51.380;-0.176;2022-08-11T14:40:00;4.18;;;1.00;;
29700;SDS011;57917;51.380;-0.176;2022-08-11T14:46:07;2.83;;;1.10;;
29700;SDS011;57917;51.380;-0.176;2022-08-11T14:52:13;0.95;;;0.82;;
29700;SDS011;57917;51.380;-0.176;2022-08-11T14:58:02;1.05;;;0.85;;
29700;SDS011;57917;51.380;-0.176;2022-08-11T15:03:50;2.22;;;1.13;;
29700;SDS011;57917;51.380;-0.176;2022-08-11T15:09:58;2.10;;;1.10;;
29700;SDS011;57917;51.380;-0.176;2022-08-11T15:15:58;1.75;;;1.50;;
29700;SDS011;57917;51.380;-0.176;2022-08-11T15:22:04;9.25;;;1.95;;
29700;SDS011;57917;51.380;-0.176;2022-08-11T15:28:16;1.80;;;1.23;;
29700;SDS011;57917;51.380;-0.176;2022-08-11T15:34:24;2.42;;;1.13;;
29700;SDS011;57917;51.380;-0.176;2022-08-11T15:40:34;3.58;;;0.93;;
29700;SDS011;57917;51.380;-0.176;2022-08-11T15:46:43;7.70;;;1.13;;
29700;SDS011;57917;51.380;-0.176;2022-08-11T15:52:38;16.92;;;1.27;;
29700;SDS011;57917;51.380;-0.176;2022-08-11T15:58:37;4.47;;;1.02;;
29700;SDS011;57917;51.380;-0.176;2022-08-11T16:05:07;3.75;;;1.08;;
29700;SDS011;57917;51.380;-0.176;2022-08-11T16:10:58;5.30;;;0.95;;
29700;SDS011;57917;51.380;-0.176;2022-08-11T16:16:49;1.17;;;0.90;;
29700;SDS011;57917;51.380;-0.176;2022-08-11T16:22:41;3.92;;;1.10;;
29700;SDS011;57917;51.380;-0.176;2022-08-11T16:28:54;4.93;;;1.05;;
29700;SDS011;57917;51.380;-0.176;2022-08-11T16:34:44;6.30;;;0.95;;
29700;SDS011;57917;51.380;-0.176;2022-08-11T16:40:52;3.55;;;1.02;;
29700;SDS011;57917;51.380;-0.176;2022-08-11T16:46:40;1.35;;;1.17;;
29700;SDS011;57917;51.380;-0.176;2022-08-11T16:52:55;3.35;;;1.10;;
29700;SDS011;57917;51.380;-0.176;2022-08-11T16:58:42;3.97;;;1.30;;
29700;SDS011;57917;51.380;-0.176;2022-08-11T17:04:51;2.75;;;1.20;;
29700;SDS011;57917;51.380;-0.176;2022-08-11T17:11:02;4.03;;;1.10;;
29700;SDS011;57917;51.380;-0.176;2022-08-11T17:17:13;2.00;;;1.20;;
29700;SDS011;57917;51.380;-0.176;2022-08-11T17:23:12;3.08;;;1.27;;
29700;SDS011;57917;51.380;-0.176;2022-08-11T17:29:19;4.57;;;1.33;;
29700;SDS011;57917;51.380;-0.176;2022-08-11T17:35:19;4.67;;;1.07;;
29700;SDS011;57917;51.380;-0.176;2022-08-11T17:41:18;1.45;;;1.00;;
29700;SDS011;57917;51.380;-0.176;2022-08-11T17:47:25;2.22;;;1.00;;
29700;SDS011;57917;51.380;-0.176;2022-08-11T17:53:37;3.58;;;1.20;;
29700;SDS011;57917;51.380;-0.176;2022-08-11T18:00:06;1.35;;;1.00;;
29700;SDS011;57917;51.380;-0.176;2022-08-11T18:05:58;5.07;;;1.40;;
29700;SDS011;57917;51.380;-0.176;2022-08-11T18:11:50;2.10;;;1.17;;
29700;SDS011;57917;51.380;-0.176;2022-08-11T18:17:58;1.70;;;1.23;;
29700;SDS011;57917;51.380;-0.176;2022-08-11T18:24:09;2.72;;;1.35;;
29700;SDS011;57917;51.380;-0.176;2022-08-11T18:30:27;3.10;;;1.40;;
29700;SDS011;57917;51.380;-0.176;2022-08-11T18:43:34;1.20;;;1.10;;
29700;SDS011;57917;51.380;-0.176;2022-08-11T18:49:57;3.03;;;1.40;;
29700;SDS011;57917;51.380;-0.176;2022-08-11T18:56:24;5.00;;;1.45;;
29700;SDS011;57917;51.380;-0.176;2022-08-11T19:02:38;1.77;;;0.98;;
29700;SDS011;57917;51.380;-0.176;2022-08-11T19:08:51;5.85;;;1.50;;
29700;SDS011;57917;51.380;-0.176;2022-08-11T19:14:59;2.10;;;1.00;;
29700;SDS011;57917;51.380;-0.176;2022-08-11T19:21:08;1.85;;;0.98;;
29700;SDS011;57917;51.380;-0.176;2022-08-11T19:27:16;1.42;;;1.05;;
29700;SDS011;57917;51.380;-0.176;2022-08-11T19:33:23;2.92;;;1.20;;
29700;SDS011;57917;51.380;-0.176;2022-08-11T19:39:53;1.73;;;1.13;;
29700;SDS011;57917;51.380;-0.176;2022-08-11T19:46:09;6.68;;;1.50;;
29700;SDS011;57917;51.380;-0.176;2022-08-11T19:52:16;5.45;;;2.05;;
29700;SDS011;57917;51.380;-0.176;2022-08-11T19:58:25;3.40;;;1.40;;
29700;SDS011;57917;51.380;-0.176;2022-08-11T20:04:36;2.40;;;1.42;;
29700;SDS011;57917;51.380;-0.176;2022-08-11T20:17:23;2.97;;;1.70;;
29700;SDS011;57917;51.380;-0.176;2022-08-11T20:23:30;4.60;;;1.90;;
29700;SDS011;57917;51.380;-0.176;2022-08-11T20:29:36;4.15;;;2.03;;
29700;SDS011;57917;51.380;-0.176;2022-08-11T20:35:42;11.25;;;1.95;;
29700;SDS011;57917;51.380;-0.176;2022-08-11T20:41:48;6.45;;;1.80;;
29700;SDS011;57917;51.380;-0.176;2022-08-11T20:47:56;7.18;;;1.90;;
29700;SDS011;57917;51.380;-0.176;2022-08-11T20:54:02;3.15;;;1.85;;
29700;SDS011;57917;51.380;-0.176;2022-08-11T21:00:28;4.50;;;1.55;;
29700;SDS011;57917;51.380;-0.176;2022-08-11T21:06:39;9.93;;;2.15;;
29700;SDS011;57917;51.380;-0.176;2022-08-11T21:12:46;2.63;;;1.42;;
29700;SDS011;57917;51.380;-0.176;2022-08-11T21:19:21;4.03;;;1.83;;
29700;SDS011;57917;51.380;-0.176;2022-08-11T21:25:51;6.93;;;2.58;;
29700;SDS011;57917;51.380;-0.176;2022-08-11T21:31:59;7.13;;;2.42;;
29700;SDS011;57917;51.380;-0.176;2022-08-11T21:38:05;14.52;;;1.98;;
29700;SDS011;57917;51.380;-0.176;2022-08-11T21:44:11;4.78;;;2.10;;
29700;SDS011;57917;51.380;-0.176;2022-08-11T21:50:22;8.55;;;2.38;;
29700;SDS011;57917;51.380;-0.176;2022-08-11T21:56:27;2.00;;;1.70;;
29700;SDS011;57917;51.380;-0.176;2022-08-11T22:02:37;6.05;;;2.03;;
29700;SDS011;57917;51.380;-0.176;2022-08-11T22:08:43;5.22;;;2.50;;
29700;SDS011;57917;51.380;-0.176;2022-08-11T22:14:52;7.75;;;2.58;;
29700;SDS011;57917;51.380;-0.176;2022-08-11T22:20:58;4.32;;;2.92;;
29700;SDS011;57917;51.380;-0.176;2022-08-11T22:27:25;3.92;;;2.28;;
29700;SDS011;57917;51.380;-0.176;2022-08-11T22:33:30;13.95;;;2.92;;
29700;SDS011;57917;51.380;-0.176;2022-08-11T22:39:49;7.70;;;2.80;;
29700;SDS011;57917;51.380;-0.176;2022-08-11T22:46:03;4.43;;;2.80;;
29700;SDS011;57917;51.380;-0.176;2022-08-11T22:52:08;8.15;;;3.90;;
29700;SDS011;57917;51.380;-0.176;2022-08-11T22:58:16;3.03;;;2.40;;
29700;SDS011;57917;51.380;-0.176;2022-08-11T23:04:22;4.50;;;2.53;;
29700;SDS011;57917;51.380;-0.176;2022-08-11T23:10:28;7.72;;;2.47;;
29700;SDS011;57917;51.380;-0.176;2022-08-11T23:16:34;9.90;;;2.95;;
29700;SDS011;57917;51.380;-0.176;2022-08-11T23:22:43;7.30;;;2.67;;
29700;SDS011;57917;51.380;-0.176;2022-08-11T23:28:49;4.07;;;2.75;;
29700;SDS011;57917;51.380;-0.176;2022-08-11T23:34:56;6.03;;;3.08;;
29700;SDS011;57917;51.380;-0.176;2022-08-11T23:41:24;4.45;;;3.00;;
29700;SDS011;57917;51.380;-0.176;2022-08-11T23:47:30;6.88;;;3.00;;
29700;SDS011;57917;51.380;-0.176;2022-08-11T23:53:37;7.80;;;3.03;;
29700;SDS011;57917;51.380;-0.176;2022-08-11T23:59:44;9.38;;;2.92;;
